This is the latest recevied weather packets stored in our database for station/object KM5R. If no packets are shown the sender has not sent any weather packets the latest 1 day(s).
| Time | Temp. | Humidity | Pressure | Rain* | Wind** | Luminosity | Snow |
|---|---|---|---|---|---|---|---|
| 1836274755 | 24.44° C | 65% | 1018.5 hPa | 0 mm | 0 m/s | 0 W/m² | - |
| 1836274452 | 24.44° C | 64% | 1018.5 hPa | 0 mm | 0 m/s | 0 W/m² | - |
| 1836274306 | 24.44° C | 65% | 1018.5 hPa | 0 mm | 0 m/s | 0 W/m² | - |
| 1836274151 | 24.44° C | 64% | 1018.4 hPa | 0 mm | 0.45 m/s, 58° | 0 W/m² | - |
| 1778060199 | 16.67° C | 78% | 1011.3 hPa | 0 mm | 2.24 m/s, 289° | 0 W/m² | - |
| 1778059896 | 16.67° C | 78% | 1011.5 hPa | 0 mm | 3.13 m/s, 300° | 0 W/m² | - |
| 1778059594 | 17.22° C | 78% | 1011.4 hPa | 0 mm | 3.13 m/s, 304° | 0 W/m² | - |
| 1778059291 | 17.22° C | 78% | 1011.1 hPa | 0 mm | 2.24 m/s, 273° | 0 W/m² | - |
| 1778058989 | 17.22° C | 78% | 1011.2 hPa | 0 mm | 2.68 m/s, 321° | 0 W/m² | - |
| 1778058686 | 17.22° C | 78% | 1011.1 hPa | 0 mm | 3.58 m/s, 277° | 0 W/m² | - |
| 1778058384 | 17.22° C | 77% | 1011.2 hPa | 0 mm | 1.34 m/s, 304° | 0 W/m² | - |
| 1778058080 | 17.78° C | 78% | 1011.3 hPa | 0 mm | 4.47 m/s, 296° | 0 W/m² | - |
| 1778057777 | 17.78° C | 78% | 1011.4 hPa | 0 mm | 2.68 m/s, 286° | 0 W/m² | - |
| 1778057473 | 17.78° C | 77% | 1011.2 hPa | 0 mm | 0.45 m/s, 9° | 0 W/m² | - |
| 1778057170 | 17.78° C | 77% | 1011.1 hPa | 0 mm | 3.13 m/s, 310° | 0 W/m² | - |
| 1778056867 | 17.78° C | 77% | 1011.1 hPa | 0 mm | 2.24 m/s, 268° | 0 W/m² | - |
| 1778056564 | 18.33° C | 77% | 1010.9 hPa | 0 mm | 4.02 m/s, 299° | 0 W/m² | - |
| 1778056261 | 18.33° C | 77% | 1011.1 hPa | 0 mm | 3.13 m/s, 300° | 0 W/m² | - |
| 1778055958 | 18.33° C | 77% | 1011 hPa | 0 mm | 3.13 m/s, 323° | 0 W/m² | - |
| 1778055653 | 18.33° C | 77% | 1011.1 hPa | 0 mm | 2.68 m/s, 329° | 0 W/m² | - |
| 1778055352 | 18.33° C | 77% | 1011 hPa | 0 mm | 3.13 m/s, 300° | 0 W/m² | - |
| 1778055049 | 18.89° C | 77% | 1010.8 hPa | 0 mm | 3.13 m/s, 313° | 0 W/m² | - |
| 1778054747 | 18.89° C | 77% | 1010.7 hPa | 0 mm | 1.34 m/s, 355° | 0 W/m² | - |
| 1778054443 | 18.89° C | 77% | 1010.7 hPa | 0 mm | 0.89 m/s, 354° | 0 W/m² | - |
| 1778054141 | 18.89° C | 77% | 1010.8 hPa | 0 mm | 1.34 m/s, 308° | 0 W/m² | - |
* Rain latest hour (hover to see other rain measurements)
** Current wind speed in m/s (hover to see current wind gust speed)